createdAt,value
2022-11-16T05:00:20.677Z,99478.44
2022-11-16T05:03:24.395Z,99480.56
2022-11-16T05:06:26.524Z,99478.19
2022-11-16T05:09:29.137Z,99478.00
2022-11-16T05:12:31.723Z,99472.84
2022-11-16T05:15:34.620Z,99471.16
2022-11-16T05:18:37.194Z,99476.53
2022-11-16T05:21:40.117Z,99477.31
2022-11-16T05:24:44.101Z,99472.84
2022-11-16T05:27:46.475Z,99469.47
2022-11-16T05:30:48.528Z,99472.84
2022-11-16T05:33:52.154Z,99466.78
2022-11-16T05:36:55.568Z,99459.81
2022-11-16T05:39:58.004Z,99458.94
2022-11-16T05:43:01.923Z,99452.84
2022-11-16T05:46:05.511Z,99441.62
2022-11-16T05:49:08.332Z,99437.37
2022-11-16T05:52:11.122Z,99445.13
2022-11-16T05:55:13.697Z,99439.00
2022-11-16T05:58:16.398Z,99439.00
2022-11-16T06:01:18.490Z,99435.66
2022-11-16T06:04:24.235Z,99425.22
2022-11-16T06:07:26.839Z,99432.13
2022-11-16T06:10:29.408Z,99430.34
2022-11-16T06:13:33.101Z,99433.62
2022-11-16T06:16:35.817Z,99432.75
2022-11-16T06:19:38.229Z,99430.09
2022-11-16T06:22:40.639Z,99433.59
2022-11-16T06:25:42.903Z,99430.91
2022-11-16T06:28:45.645Z,99435.13
2022-11-16T06:31:48.228Z,99436.16
2022-11-16T06:34:51.233Z,99430.31
2022-11-16T06:37:53.331Z,99431.19
2022-11-16T06:40:57.809Z,99431.22
2022-11-16T06:44:01.019Z,99429.37
2022-11-16T06:47:04.844Z,99424.06
2022-11-16T06:50:08.781Z,99413.66
2022-11-16T06:53:11.214Z,99412.94
2022-11-16T06:56:15.487Z,99413.72
2022-11-16T06:59:17.981Z,99409.38
2022-11-16T07:02:22.723Z,99405.97
2022-11-16T07:05:25.105Z,99405.06
2022-11-16T07:08:29.515Z,99410.41
2022-11-16T07:11:31.984Z,99400.91
2022-11-16T07:14:34.282Z,99404.41
2022-11-16T07:17:38.184Z,99395.69
2022-11-16T07:20:40.299Z,99399.13
2022-11-16T07:23:43.681Z,99397.38
2022-11-16T07:26:46.106Z,99396.41
2022-11-16T07:29:57.516Z,99388.69
2022-11-16T07:33:04.514Z,99386.16
2022-11-16T07:36:13.294Z,99381.81
2022-11-16T07:39:15.680Z,99386.94
2022-11-16T07:42:18.777Z,99378.22
2022-11-16T07:45:21.961Z,99380.06
2022-11-16T07:48:24.847Z,99385.38
2022-11-16T07:51:28.862Z,99374.94
2022-11-16T07:54:33.333Z,99368.00
2022-11-16T07:57:35.868Z,99373.19
2022-11-16T08:00:38.643Z,99369.75
2022-11-16T08:03:43.069Z,99357.56
2022-11-16T08:06:46.819Z,99352.38
2022-11-16T08:09:50.128Z,99354.94
2022-11-16T08:12:52.589Z,99361.03
2022-11-16T08:15:55.208Z,99361.94
2022-11-16T08:18:57.588Z,99361.91
2022-11-16T08:22:00.245Z,99360.13
2022-11-16T08:25:04.085Z,99350.53
2022-11-16T08:28:06.616Z,99359.19
2022-11-16T08:31:12.938Z,99354.84
2022-11-16T08:34:16.417Z,99354.97
2022-11-16T08:37:18.900Z,99349.78
2022-11-16T08:40:22.697Z,99349.75
2022-11-16T08:43:24.995Z,99353.25
2022-11-16T08:46:27.880Z,99348.03
2022-11-16T08:49:30.713Z,99345.41
2022-11-16T08:52:33.402Z,99348.84
2022-11-16T08:55:36.036Z,99347.13
2022-11-16T08:58:39.248Z,99345.34
2022-11-16T09:01:41.498Z,99344.50
2022-11-16T09:04:43.888Z,99341.09
2022-11-16T09:07:46.064Z,99341.97
2022-11-16T09:10:48.402Z,99341.06
2022-11-16T09:13:53.186Z,99336.75
2022-11-16T09:16:56.055Z,99335.00
2022-11-16T09:19:58.377Z,99336.75
2022-11-16T09:23:00.704Z,99335.88
2022-11-16T09:26:05.383Z,99329.78
2022-11-16T09:29:11.339Z,99331.53
2022-11-16T09:32:13.377Z,99328.06
2022-11-16T09:35:17.264Z,99326.31
2022-11-16T09:38:26.998Z,99324.59
2022-11-16T09:42:32.759Z,99315.03
2022-11-16T09:45:54.233Z,99314.13
2022-11-16T09:49:00.205Z,99316.75
2022-11-16T09:52:07.038Z,99311.53
2022-11-16T09:55:38.574Z,99310.59
2022-11-16T09:59:04.013Z,99297.53
2022-11-16T10:02:19.404Z,99293.25
2022-11-16T10:05:24.122Z,99293.28
2022-11-16T10:08:39.995Z,99278.47
2022-11-16T10:12:13.428Z,99271.53
2022-11-16T10:15:52.684Z,99270.66
2022-11-16T10:19:10.030Z,99261.94
2022-11-16T10:22:52.402Z,99261.97
2022-11-16T10:26:20.452Z,99262.81
2022-11-16T10:29:22.468Z,99254.97
2022-11-16T10:32:33.193Z,99258.47
2022-11-16T10:35:42.737Z,99250.66
2022-11-16T10:38:45.347Z,99252.38
2022-11-16T10:41:52.756Z,99248.03
2022-11-16T10:45:17.782Z,99241.94
2022-11-16T10:48:31.423Z,99228.00
2022-11-16T10:51:33.806Z,99229.75
2022-11-16T10:54:38.892Z,99221.03
2022-11-16T10:57:58.747Z,99217.56
2022-11-16T11:01:01.134Z,99209.75
2022-11-16T11:04:22.117Z,99197.53
2022-11-16T11:07:32.633Z,99202.75
2022-11-16T11:10:38.705Z,99196.62
2022-11-16T11:13:40.861Z,99189.72
2022-11-16T11:16:43.165Z,99186.22
2022-11-16T11:19:45.319Z,99181.94
2022-11-16T11:23:04.545Z,99174.06
2022-11-16T11:26:10.081Z,99180.13
2022-11-16T11:29:34.988Z,99174.94
2022-11-16T11:32:40.093Z,99174.03
2022-11-16T11:35:42.772Z,99166.22
2022-11-16T11:39:01.917Z,99171.47
2022-11-16T11:42:13.309Z,99161.94
2022-11-16T11:45:15.533Z,99161.03
2022-11-16T11:48:21.009Z,99152.34
2022-11-16T11:51:33.550Z,99141.91
2022-11-16T11:54:45.854Z,99147.09
2022-11-16T11:57:52.956Z,99145.34
2022-11-16T12:01:26.219Z,99144.44
2022-11-16T12:04:34.421Z,99145.31
2022-11-16T12:07:51.506Z,99142.75
2022-11-16T12:11:17.138Z,99141.00
2022-11-16T12:14:40.853Z,99134.09
2022-11-16T12:18:00.171Z,99137.56
2022-11-16T12:21:05.646Z,99141.88
2022-11-16T12:24:44.918Z,99134.94
2022-11-16T12:28:08.702Z,99133.16
2022-11-16T12:31:33.712Z,99130.53
2022-11-16T12:34:55.575Z,99127.00
2022-11-16T12:38:20.533Z,99125.25
2022-11-16T12:41:42.160Z,99126.16
2022-11-16T12:44:50.510Z,99118.31
2022-11-16T12:48:30.084Z,99122.75
2022-11-16T12:51:47.426Z,99105.31
2022-11-16T12:55:26.484Z,99107.03
2022-11-16T12:58:32.362Z,99103.56
2022-11-16T13:02:18.978Z,99109.63
2022-11-16T13:05:25.061Z,99114.00
2022-11-16T13:08:39.496Z,99107.00
2022-11-16T13:11:52.687Z,99109.63
2022-11-16T13:14:57.231Z,99106.19
2022-11-16T13:18:03.670Z,99101.81
2022-11-16T13:21:11.085Z,99114.88
2022-11-16T13:24:37.181Z,99109.69
2022-11-16T13:27:48.035Z,99114.91
2022-11-16T13:31:04.353Z,99107.94
2022-11-16T13:34:14.676Z,99106.19
2022-11-16T13:37:39.194Z,99099.28
2022-11-16T13:40:41.598Z,99095.78
2022-11-16T13:43:50.200Z,99101.84
2022-11-16T13:46:56.644Z,99094.03
2022-11-16T13:50:02.037Z,99100.16
2022-11-16T13:56:49.508Z,99095.72
2022-11-16T14:00:00.712Z,99093.09
2022-11-16T14:03:12.057Z,99092.25
2022-11-16T14:06:20.264Z,99081.84
2022-11-16T14:09:45.411Z,99087.06
2022-11-16T14:12:53.277Z,99083.56
2022-11-16T14:16:20.431Z,99073.16
2022-11-16T14:19:45.238Z,99074.03
2022-11-16T14:23:09.258Z,99076.59
2022-11-16T14:26:58.206Z,99072.22
2022-11-16T14:30:23.166Z,99067.00
2022-11-16T14:33:33.994Z,99066.19
2022-11-16T14:36:38.726Z,99067.06
2022-11-16T14:39:44.856Z,99068.81
2022-11-16T14:43:15.996Z,99073.16
2022-11-16T14:46:23.667Z,99076.63
2022-11-16T14:49:27.909Z,99063.59
2022-11-16T14:52:37.617Z,99066.28
2022-11-16T14:55:45.881Z,99055.81
2022-11-16T14:58:56.779Z,99055.72
2022-11-16T15:02:04.625Z,99054.88
2022-11-16T15:05:07.326Z,99053.12
2022-11-16T15:08:28.989Z,99042.72
2022-11-16T15:11:52.416Z,99047.06
2022-11-16T15:14:57.950Z,99041.81
2022-11-16T15:18:00.183Z,99041.88
2022-11-16T15:21:02.276Z,99047.03
2022-11-16T15:27:41.868Z,99034.00
2022-11-16T15:30:50.812Z,99041.84
2022-11-16T15:33:52.857Z,99040.97
2022-11-16T15:36:55.150Z,99035.72
2022-11-16T15:39:59.005Z,99034.03
2022-11-16T15:43:04.678Z,99033.97
2022-11-16T15:46:07.549Z,99032.28
2022-11-16T15:49:26.553Z,99030.53
2022-11-16T15:52:43.418Z,99033.19
2022-11-16T15:55:49.971Z,99032.34
2022-11-16T15:58:57.992Z,99027.06
2022-11-16T16:02:00.567Z,99022.72
2022-11-16T16:05:03.114Z,99027.03
2022-11-16T16:08:06.300Z,99031.41
2022-11-16T16:11:16.313Z,99028.81
2022-11-16T16:14:36.503Z,99026.19
2022-11-16T16:17:44.690Z,99024.50
2022-11-16T16:20:48.899Z,99023.59
2022-11-16T16:23:56.222Z,99018.31
2022-11-16T16:26:58.308Z,99028.75
2022-11-16T16:30:04.794Z,99020.03
2022-11-16T16:33:06.848Z,99024.44
2022-11-16T16:36:11.483Z,99031.38
2022-11-16T16:39:13.540Z,99024.44
